This is the latest recevied weather packets stored in our database for station/object YC2UTR-2. If no packets are shown the sender has not sent any weather packets the latest 10 day(s).
| Time | Temp. | Humidity | Pressure | Rain* | Wind** | Luminosity | Snow |
|---|---|---|---|---|---|---|---|
| 1787895778 | 31.11° C | 50% | 1017 hPa | - | - | - | - |
| 1787895478 | 30.56° C | 50% | 1017.1 hPa | - | - | - | - |
| 1787895178 | 30.56° C | 50% | 1017.1 hPa | - | - | - | - |
| 1787894878 | 31.11° C | 49% | 1017.2 hPa | - | - | - | - |
| 1787894578 | 30° C | 51% | 1017.2 hPa | - | - | - | - |
| 1787894278 | 30.56° C | 50% | 1017.3 hPa | - | - | - | - |
| 1787893978 | 30.56° C | 48% | 1017.4 hPa | - | - | - | - |
| 1787893678 | 30.56° C | 50% | 1017.5 hPa | - | - | - | - |
| 1787893378 | 30° C | 51% | 1017.5 hPa | - | - | - | - |
| 1787893078 | 30.56° C | 50% | 1017.6 hPa | - | - | - | - |
| 1787892778 | 30° C | 54% | 1017.8 hPa | - | - | - | - |
| 1787892478 | 29.44° C | 56% | 1017.9 hPa | - | - | - | - |
| 1787892178 | 30° C | 54% | 1017.9 hPa | - | - | - | - |
| 1787891878 | 30° C | 51% | 1017.9 hPa | - | - | - | - |
| 1787891578 | 30° C | 52% | 1018 hPa | - | - | - | - |
| 1787891278 | 29.44° C | 52% | 1018.1 hPa | - | - | - | - |
| 1787890978 | 30° C | 52% | 1018.1 hPa | - | - | - | - |
| 1787890678 | 30° C | 53% | 1018.1 hPa | - | - | - | - |
| 1787890378 | 29.44° C | 55% | 1018.4 hPa | - | - | - | - |
| 1787890078 | 28.89° C | 56% | 1018.3 hPa | - | - | - | - |
| 1787889778 | 30° C | 52% | 1018.3 hPa | - | - | - | - |
| 1787889478 | 29.44° C | 54% | 1018.4 hPa | - | - | - | - |
| 1787889178 | 29.44° C | 55% | 1018.5 hPa | - | - | - | - |
| 1787888878 | 28.33° C | 58% | 1018.7 hPa | - | - | - | - |
| 1787888578 | 27.78° C | 60% | 1018.8 hPa | - | - | - | - |
* Rain since midnight (hover to see other rain measurements)
** Current wind speed in m/s (hover to see current wind gust speed)